Terminal Aerodrome Forecast
Issued by NWS

Home | Current Version | Previous Version | Text Only | Print | Product List | Glossary On
Versions: 1 2 3 4 5 6 7 8 9 10 11 12 13 14 15 16 17 18 19 20 21 22 23 24 25 26 27 28 29 30
217
FTUS43 KDLH 161644 AAF
TAFHIB
TAF AMD
KHIB 161644Z 1617/1712 VRB03KT 2SM BR OVC002
      TEMPO 1617/1620 1/2SM FZFG OVC001
     FM162000 VRB03KT 5SM BR SCT001
     FM170400 00000KT 1SM BR SCT200
     FM170600 00000KT 1/2SM FZFG OVC001=

USA.gov is the U.S. government's official web portal to all federal, state and local government web resources and services.